Flight Track Log - Related Links

Times and Time Zones

All times are in EDT time to prevent confusion due to time zone crossing. See the SWA1031 flight status page for this flight to view local times or setup timezone preferences in your user account.

Time Position Orientation Groundspeed Altitude Reporting Facility
EDT Latitude Longitude Course Direction KTS MPH feet Rate Location/Type
Sun 02:58:24 PM 38.6667 -121.5833 123° Southeast 180 207 1,900  Level Northern Cal TRACON
Sun 02:59:24 PM 38.6333 -121.5167 123° Southeast 232 267 4,600 3,379 Climbing Northern Cal TRACON
Sun 03:01:18 PM 38.5500 -121.3667 125° Southeast 284 327 11,700 3,755 Climbing Northern Cal TRACON
Sun 03:01:51 PM 38.5314 -121.3108 113° Southeast 293 337 13,800 3,789 Climbing Oakland Center
Sun 03:02:53 PM 38.4833 -121.2097 121° Southeast 330 380 17,700 3,415 Climbing Oakland Center
Sun 03:03:54 PM 38.4319 -121.1022 121° Southeast 348 400 20,800 3,000 Climbing Oakland Center
Sun 03:04:55 PM 38.3781 -120.9886 121° Southeast 369 425 23,800 2,732 Climbing Oakland Center
Sun 03:05:57 PM 38.3208 -120.8697 122° Southeast 387 445 26,400 2,293 Climbing Oakland Center
Sun 03:06:58 PM 38.2614 -120.7464 122° Southeast 405 466 28,500 2,049 Climbing Oakland Center
Sun 03:08:00 PM 38.1761 -120.6500 138° Southeast 416 479 30,600 2,000 Climbing Oakland Center
Sun 03:09:01 PM 38.0744 -120.5828 152° Southeast 412 474 32,600 1,756 Climbing Oakland Center
Sun 03:10:03 PM 37.9694 -120.5142 153° Southeast 422 486 34,200 1,512 Climbing Oakland Center
Sun 03:11:04 PM 37.8647 -120.4411 151° Southeast 430 495 35,700 1,721 Climbing Oakland Center
Sun 03:12:05 PM 37.7364 -120.3553 152° Southeast 432 497 37,700 1,659 Climbing Oakland Center
Sun 03:13:07 PM 37.6294 -120.2875 153° Southeast 432 497 39,100 1,016 Climbing Oakland Center
Sun 03:14:09 PM 37.5214 -120.2161 152° Southeast 434 499 39,800 780 Climbing Oakland Center
Sun 03:15:10 PM 37.4117 -120.1411 151° Southeast 443 510 40,700 590 Climbing Oakland Center
Sun 03:16:11 PM 37.2969 -120.0689 153° Southeast 454 522 41,000 146 Climbing Oakland Center
Sun 03:17:13 PM 37.1850 -119.9953 152° Southeast 455 524 41,000  Level Oakland Center
Sun 03:18:14 PM 37.0739 -119.9217 152° Southeast 455 524 41,000  Level Oakland Center
Sun 03:19:15 PM 36.9650 -119.8508 153° Southeast 444 511 41,000  Level Oakland Center
Sun 03:20:17 PM 36.8522 -119.7764 152° Southeast 454 522 41,000  Level Oakland Center
Sun 03:21:18 PM 36.7225 -119.6931 153° Southeast 441 507 41,000  Level Oakland Center
Sun 03:22:20 PM 36.6117 -119.6200 152° Southeast 446 513 41,000  Level Oakland Center
Sun 03:23:21 PM 36.5042 -119.5517 153° Southeast 437 503 41,000  Level Oakland Center
Sun 03:24:23 PM 36.3994 -119.4594 145° Southeast 458 527 41,000  Level Oakland Center
Sun 03:25:25 PM 36.2956 -119.3758 147° Southeast 447 514 41,000  Level Oakland Center
Sun 03:26:25 PM 36.1900 -119.2908 147° Southeast 453 521 41,000  Level Oakland Center
Sun 03:27:27 PM 36.0839 -119.2050 147° Southeast 457 526 41,000  Level Oakland Center
Sun 03:28:28 PM 35.9800 -119.1242 148° Southeast 444 511 41,000  Level Oakland Center
Sun 03:29:30 PM 35.8769 -119.0428 147° Southeast 438 504 41,000  Level Oakland Center
Sun 03:30:31 PM 35.7522 -118.9417 147° Southeast 442 509 41,000  Level Oakland Center
Sun 03:31:33 PM 35.6481 -118.8594 147° Southeast 443 510 41,000  Level Oakland Center
Sun 03:32:34 PM 35.5456 -118.7778 147° Southeast 441 507 41,000  Level Oakland Center
Sun 03:32:50 PM 35.5219 -118.7586 147° Southeast 442 509 41,000 -231 Level Los Angeles Center
Sun 03:33:52 PM 35.4200 -118.6781 147° Southeast 437 503 40,700 -1,355 Descending Los Angeles Center
Sun 03:34:54 PM 35.3208 -118.5992 147° Southeast 429 494 38,200 -2,806 Descending Los Angeles Center
Sun 03:35:56 PM 35.1972 -118.5033 148° Southeast 434 499 34,900 -3,048 Descending Los Angeles Center
Sun 03:36:58 PM 35.1017 -118.4283 147° Southeast 432 497 31,900 -2,613 Descending Los Angeles Center
Sun 03:38:00 PM 35.0014 -118.3508 148° Southeast 428 493 29,500 -2,129 Descending Los Angeles Center
Sun 03:39:02 PM 34.9058 -118.2775 148° Southeast 411 473 27,500 -1,536 Descending Los Angeles Center
Sun 03:40:05 PM 34.8147 -118.2058 147° Southeast 397 457 26,300 -1,752 Descending Los Angeles Center
Sun 03:41:19 PM 34.7050 -118.1225 148° Southeast 391 450 23,500 -2,471 Descending Los Angeles Center
Sun 03:42:21 PM 34.6122 -118.0239 139° Southeast 377 434 20,700 -1,790 Descending Los Angeles Center
Sun 03:43:23 PM 34.5622 -117.9156 119° Southeast 371 427 19,800 -871 Descending Los Angeles Center
Sun 03:44:25 PM 34.5228 -117.8283 119° Southeast 371 427 18,900 -1,824 Descending Los Angeles Center
Sun 03:45:28 PM 34.4544 -117.6811 119° Southeast 362 417 16,000 -2,304 Descending Los Angeles Center
Sun 03:46:30 PM 34.4069 -117.5775 119° Southeast 354 407 14,100 -1,306 Descending Los Angeles Center
Sun 03:47:32 PM 34.3628 -117.4775 118° Southeast 326 375 13,300 -919 Descending Los Angeles Center
Sun 03:48:34 PM 34.3053 -117.3989 132° Southeast 288 331 12,200 -1,452 Descending Los Angeles Center
Sun 03:49:36 PM 34.2539 -117.3469 140° Southeast 267 307 10,300 -2,032 Descending Los Angeles Center
Sun 03:50:38 PM 34.1878 -117.3314 169° South 244 281 8,000 -2,129 Descending Los Angeles Center
Sun 03:51:40 PM 34.1222 -117.3236 174° South 238 274 5,900 -1,938 Descending Los Angeles Center
Sun 03:52:48 PM 34.0667 -117.3833 222° Southwest 215 247 3,800 -1,268 Descending Southern California TRACON
Sun 03:53:43 PM 34.0500 -117.4333 248° West 206 237 3,300 -730 Descending Southern California TRACON
Sun 03:54:43 PM 34.0500 -117.5000 270° West 167 192 2,400 -850 Descending Southern California TRACON
Sun 03:55:43 PM 34.0500 -117.5500 270° West 130 150 1,600 -800 Descending Southern California TRACON
Sun 03:59:00 PM 34.0500 -117.6000 270° West  Level FlightAware Approximate

Login

Don't have an account? Register now (free) for customized features, flight alerts, and more!